createdAt,value
2019-01-03T00:02:30.830Z,25.57
2019-01-03T00:05:16.152Z,36.17
2019-01-03T00:08:02.974Z,33.50
2019-01-03T00:11:02.365Z,17.40
2019-01-03T00:13:38.318Z,37.10
2019-01-03T00:16:33.833Z,21.12
2019-01-03T00:19:18.417Z,37.90
2019-01-03T00:22:11.048Z,27.25
2019-01-03T00:24:53.076Z,28.62
2019-01-03T00:27:38.095Z,31.20
2019-01-03T00:30:26.160Z,24.37
2019-01-03T00:33:21.641Z,31.50
2019-01-03T00:36:06.618Z,26.77
2019-01-03T00:38:53.460Z,24.07
2019-01-03T00:41:43.166Z,29.20
2019-01-03T00:44:22.389Z,26.90
2019-01-03T00:47:07.762Z,22.62
2019-01-03T00:50:00.919Z,29.80
2019-01-03T00:52:38.838Z,31.42
2019-01-03T00:55:31.788Z,30.80
2019-01-03T00:58:13.988Z,41.00
2019-01-03T01:01:00.860Z,30.00
2019-01-03T01:03:45.970Z,40.30
2019-01-03T01:06:31.212Z,31.02
2019-01-03T01:09:29.716Z,30.15
2019-01-03T01:12:14.976Z,31.50
2019-01-03T01:15:00.638Z,45.28
2019-01-03T01:17:52.528Z,33.60
2019-01-03T01:20:42.384Z,34.38
2019-01-03T01:23:27.610Z,33.67
2019-01-03T01:26:14.461Z,34.00
2019-01-03T01:29:09.962Z,42.13
2019-01-03T01:31:55.048Z,36.95
2019-01-03T01:34:44.472Z,33.50
2019-01-03T01:37:25.830Z,31.70
2019-01-03T01:40:05.551Z,27.62
2019-01-03T01:43:04.324Z,27.10
2019-01-03T01:46:03.060Z,28.70
2019-01-03T01:48:48.290Z,29.67
2019-01-03T01:51:52.828Z,28.50
2019-01-03T01:54:57.600Z,33.60
2019-01-03T01:57:43.092Z,28.20
2019-01-03T02:00:35.630Z,36.68
2019-01-03T02:03:23.725Z,31.70
2019-01-03T02:06:08.992Z,28.55
2019-01-03T02:08:54.079Z,32.05
2019-01-03T02:11:50.044Z,32.05
2019-01-03T02:14:39.652Z,24.98
2019-01-03T02:17:26.062Z,30.00
2019-01-03T02:20:11.318Z,34.15
2019-01-03T02:23:06.788Z,29.50
2019-01-03T02:26:08.545Z,28.67
2019-01-03T02:28:53.992Z,29.52
2019-01-03T02:31:43.618Z,31.10
2019-01-03T02:34:36.315Z,25.40
2019-01-03T02:37:23.189Z,25.55
2019-01-03T02:40:22.171Z,26.52
2019-01-03T02:43:23.928Z,28.73
2019-01-03T02:46:09.493Z,31.70
2019-01-03T02:48:54.454Z,25.45
2019-01-03T02:51:49.898Z,23.15
2019-01-03T02:54:35.136Z,23.20
2019-01-03T02:57:27.861Z,23.12
2019-01-03T03:00:17.572Z,31.25
2019-01-03T03:03:10.345Z,28.02
2019-01-03T03:06:07.831Z,25.90
2019-01-03T03:08:51.292Z,36.65
2019-01-03T03:11:36.265Z,32.40
2019-01-03T03:14:21.296Z,28.73
2019-01-03T03:17:05.688Z,35.17
2019-01-03T03:20:04.163Z,28.65
2019-01-03T03:22:53.768Z,27.35
2019-01-03T03:25:49.957Z,23.47
2019-01-03T03:28:35.134Z,36.28
2019-01-03T03:31:24.485Z,29.27
2019-01-03T03:34:11.313Z,29.23
2019-01-03T03:37:00.787Z,26.55
2019-01-03T03:39:47.617Z,22.73
2019-01-03T03:42:34.468Z,27.90
2019-01-03T03:45:08.670Z,25.88
2019-01-03T03:47:55.509Z,28.38
2019-01-03T03:50:42.352Z,24.63
2019-01-03T03:53:27.615Z,25.10
2019-01-03T03:56:07.741Z,21.02
2019-01-03T03:59:03.112Z,24.07
2019-01-03T04:02:02.149Z,31.73
2019-01-03T04:04:51.935Z,24.25
2019-01-03T04:07:51.215Z,27.70
2019-01-03T04:10:37.759Z,28.07
2019-01-03T04:13:22.952Z,24.07
2019-01-03T04:16:07.950Z,22.50
2019-01-03T04:18:53.060Z,30.40
2019-01-03T04:21:38.545Z,23.52
2019-01-03T04:24:43.379Z,25.02
2019-01-03T04:27:28.697Z,23.18
2019-01-03T04:30:14.181Z,28.02
2019-01-03T04:33:05.029Z,31.65
2019-01-03T04:35:50.153Z,30.48
2019-01-03T04:38:29.391Z,27.70
2019-01-03T04:41:16.219Z,34.33
2019-01-03T04:44:03.629Z,19.30
2019-01-03T04:46:43.463Z,30.62
2019-01-03T04:49:21.277Z,21.30
2019-01-03T04:52:06.571Z,23.12
2019-01-03T04:54:56.230Z,26.80
2019-01-03T04:57:41.554Z,24.95
2019-01-03T05:00:46.049Z,25.25
2019-01-03T05:03:32.063Z,24.20
2019-01-03T05:06:17.665Z,25.75
2019-01-03T05:09:10.743Z,28.95
2019-01-03T05:11:56.175Z,26.68
2019-01-03T05:14:55.157Z,30.02
2019-01-03T05:17:41.806Z,25.32
2019-01-03T05:20:28.676Z,29.02
2019-01-03T05:23:13.962Z,22.95
2019-01-03T05:25:59.452Z,24.92
2019-01-03T05:28:48.797Z,22.80
2019-01-03T05:31:34.097Z,25.12
2019-01-03T05:34:19.119Z,25.12
2019-01-03T05:37:04.495Z,29.92
2019-01-03T05:39:40.190Z,23.87
2019-01-03T05:42:23.776Z,21.25
2019-01-03T05:45:07.901Z,28.45
2019-01-03T05:48:03.998Z,24.25
2019-01-03T05:50:50.836Z,31.27
2019-01-03T05:53:43.589Z,20.77
2019-01-03T05:56:29.338Z,24.90
2019-01-03T05:59:30.936Z,23.38
2019-01-03T06:02:16.058Z,24.15
2019-01-03T06:05:01.599Z,24.12
2019-01-03T06:07:47.018Z,21.05
2019-01-03T06:10:32.177Z,26.37
2019-01-03T06:13:24.789Z,26.55
2019-01-03T06:16:17.274Z,22.42
2019-01-03T06:19:13.073Z,23.02
2019-01-03T06:21:57.375Z,24.30
2019-01-03T06:24:42.634Z,23.95
2019-01-03T06:27:27.952Z,24.20
2019-01-03T06:30:23.608Z,28.05
2019-01-03T06:33:22.637Z,21.97
2019-01-03T06:36:05.056Z,21.02
2019-01-03T06:39:00.530Z,25.77
2019-01-03T06:41:53.322Z,19.02
2019-01-03T06:44:40.188Z,22.45
2019-01-03T06:47:31.813Z,18.85
2019-01-03T06:50:20.874Z,21.37
2019-01-03T06:53:14.948Z,24.20
2019-01-03T06:56:16.733Z,18.55
2019-01-03T06:59:08.390Z,22.40
2019-01-03T07:02:00.304Z,16.52
2019-01-03T07:04:45.385Z,23.73
2019-01-03T07:07:41.520Z,22.20
2019-01-03T07:10:40.331Z,20.77
2019-01-03T07:13:39.194Z,20.92
2019-01-03T07:16:31.823Z,16.77
2019-01-03T07:19:14.616Z,21.15
2019-01-03T07:22:15.393Z,19.10
2019-01-03T07:25:02.298Z,25.70
2019-01-03T07:27:49.036Z,21.48
2019-01-03T07:30:50.832Z,21.37
2019-01-03T07:33:38.098Z,20.35
2019-01-03T07:36:23.540Z,25.17
2019-01-03T07:39:25.388Z,25.65
2019-01-03T07:42:10.620Z,29.30
2019-01-03T07:45:12.446Z,31.20
2019-01-03T07:48:08.212Z,22.82
2019-01-03T07:50:53.581Z,21.33
2019-01-03T07:53:35.513Z,23.05
2019-01-03T07:56:20.719Z,35.03
2019-01-03T07:59:09.570Z,22.05
2019-01-03T08:01:56.436Z,23.15
2019-01-03T08:04:42.589Z,26.93
2019-01-03T08:07:41.418Z,27.60
2019-01-03T08:10:26.663Z,31.00
2019-01-03T08:13:16.693Z,27.70
2019-01-03T08:16:03.540Z,21.30
2019-01-03T08:18:47.616Z,27.85
2019-01-03T08:21:47.233Z,19.57
2019-01-03T08:24:32.733Z,20.97
2019-01-03T08:27:18.082Z,14.15
2019-01-03T08:30:08.155Z,15.40
2019-01-03T08:33:10.335Z,18.45
2019-01-03T08:35:55.961Z,12.28
2019-01-03T08:38:42.806Z,20.60
2019-01-03T08:41:28.123Z,12.63
2019-01-03T08:44:15.305Z,15.28
2019-01-03T08:47:00.337Z,17.10
2019-01-03T08:49:43.212Z,15.35
2019-01-03T08:52:32.835Z,12.70
2019-01-03T08:55:24.423Z,15.72
2019-01-03T08:58:08.137Z,12.20
2019-01-03T09:00:53.517Z,17.12
2019-01-03T09:03:38.550Z,18.23
2019-01-03T09:06:23.646Z,11.33
2019-01-03T09:09:13.265Z,19.98
2019-01-03T09:11:58.300Z,13.18
2019-01-03T09:14:38.620Z,16.02
2019-01-03T09:17:31.240Z,13.95
2019-01-03T09:20:16.593Z,13.60
2019-01-03T09:23:01.697Z,11.90
2019-01-03T09:25:48.677Z,13.70
2019-01-03T09:28:41.052Z,18.98
2019-01-03T09:31:29.354Z,12.00
2019-01-03T09:34:31.205Z,11.83
2019-01-03T09:37:12.287Z,13.72
2019-01-03T09:39:53.039Z,10.68
2019-01-03T09:42:57.604Z,12.23
2019-01-03T09:45:25.006Z,12.13
2019-01-03T09:47:52.395Z,11.22
2019-01-03T09:50:19.757Z,11.03
2019-01-03T09:52:47.325Z,11.93
2019-01-03T09:55:14.651Z,11.05
2019-01-03T09:57:41.969Z,8.98
2019-01-03T10:00:09.355Z,12.25
2019-01-03T10:02:36.692Z,10.25
2019-01-03T10:05:06.210Z,11.57
2019-01-03T10:07:33.431Z,9.18
2019-01-03T10:10:00.715Z,10.55
2019-01-03T10:12:27.948Z,13.58
2019-01-03T10:14:55.257Z,10.05
2019-01-03T10:17:22.591Z,16.35
2019-01-03T10:19:49.916Z,12.20
2019-01-03T10:22:18.166Z,12.78
2019-01-03T10:24:45.462Z,15.65
2019-01-03T10:27:12.695Z,11.60
2019-01-03T10:29:40.707Z,11.45
2019-01-03T10:32:07.931Z,6.50
2019-01-03T10:34:35.157Z,16.05
2019-01-03T10:37:02.476Z,9.70
2019-01-03T10:39:29.765Z,9.08
2019-01-03T10:41:57.104Z,14.38
2019-01-03T10:44:25.343Z,12.80
2019-01-03T10:46:52.647Z,11.45
2019-01-03T10:49:19.951Z,9.25
2019-01-03T10:51:47.269Z,8.35
2019-01-03T10:54:14.573Z,7.58
2019-01-03T10:56:41.818Z,10.23
2019-01-03T10:59:09.099Z,9.83
2019-01-03T11:01:36.293Z,10.70
2019-01-03T11:04:03.649Z,5.92
2019-01-03T11:06:30.850Z,5.35
2019-01-03T11:08:58.176Z,8.45
2019-01-03T11:11:25.433Z,6.55
2019-01-03T11:13:52.651Z,9.23
2019-01-03T11:16:19.971Z,6.62
2019-01-03T11:18:47.195Z,8.80
2019-01-03T11:21:14.438Z,8.30
2019-01-03T11:23:41.807Z,9.03
2019-01-03T11:26:09.129Z,5.47
2019-01-03T11:28:36.479Z,6.03
2019-01-03T11:31:03.861Z,6.73
2019-01-03T11:33:31.113Z,9.70
2019-01-03T11:35:58.404Z,5.37
2019-01-03T11:38:25.621Z,11.87
2019-01-03T11:40:52.931Z,6.77
2019-01-03T11:43:20.285Z,12.67
2019-01-03T11:45:47.603Z,6.77
2019-01-03T11:48:14.835Z,8.27
2019-01-03T11:50:42.184Z,10.20
2019-01-03T11:53:09.539Z,8.50
2019-01-03T11:55:36.735Z,16.47
2019-01-03T11:58:04.059Z,8.07
2019-01-03T12:00:31.389Z,12.63
2019-01-03T12:02:58.716Z,12.15
2019-01-03T12:05:26.089Z,12.20
2019-01-03T12:07:53.416Z,9.45
2019-01-03T12:10:20.625Z,11.00
2019-01-03T12:12:47.969Z,9.50
2019-01-03T12:15:15.268Z,8.50
2019-01-03T12:17:42.530Z,12.65
2019-01-03T12:20:09.738Z,11.63
2019-01-03T12:22:36.980Z,9.38
2019-01-03T12:25:04.392Z,10.72
2019-01-03T12:27:31.624Z,11.05
2019-01-03T12:29:58.944Z,9.60
2019-01-03T12:32:26.252Z,9.63
2019-01-03T12:34:53.583Z,8.55
2019-01-03T12:37:21.040Z,11.08
2019-01-03T12:39:48.362Z,8.40
2019-01-03T12:42:15.584Z,8.40
2019-01-03T12:44:42.967Z,8.90
2019-01-03T12:47:10.192Z,10.08
2019-01-03T12:49:37.408Z,8.43
2019-01-03T12:52:04.730Z,11.22
2019-01-03T12:54:31.926Z,9.95
2019-01-03T12:56:59.267Z,8.60
2019-01-03T12:59:26.618Z,8.13
2019-01-03T13:01:53.851Z,9.13
2019-01-03T13:04:21.122Z,12.45
2019-01-03T13:06:48.329Z,7.40
2019-01-03T13:09:18.253Z,11.93
2019-01-03T13:11:46.145Z,7.85
2019-01-03T13:14:13.362Z,7.67
2019-01-03T13:16:40.747Z,9.63
2019-01-03T13:19:08.120Z,6.72
2019-01-03T13:21:35.345Z,8.08
2019-01-03T13:24:02.686Z,6.15
2019-01-03T13:26:30.040Z,9.73
2019-01-03T13:28:57.337Z,8.68
2019-01-03T13:31:24.652Z,7.72
2019-01-03T13:33:52.215Z,5.72
2019-01-03T13:36:19.510Z,12.20
2019-01-03T13:38:46.854Z,8.03
2019-01-03T13:41:14.086Z,5.70
2019-01-03T13:43:41.425Z,7.00
2019-01-03T13:46:08.709Z,10.10
2019-01-03T13:48:35.938Z,6.60
2019-01-03T13:51:03.235Z,10.35
2019-01-03T13:53:30.556Z,6.53
2019-01-03T13:55:57.787Z,5.33
2019-01-03T13:58:25.157Z,6.83
2019-01-03T14:00:52.465Z,6.85
2019-01-03T14:03:19.791Z,8.18
2019-01-03T14:05:47.129Z,5.45
2019-01-03T14:08:14.442Z,7.90
2019-01-03T14:10:41.781Z,6.95
2019-01-03T14:13:09.089Z,8.65
2019-01-03T14:15:36.327Z,6.83
2019-01-03T14:18:03.645Z,11.03
2019-01-03T14:20:30.888Z,13.22
2019-01-03T14:22:58.284Z,9.50
2019-01-03T14:25:25.621Z,7.10
2019-01-03T14:27:52.996Z,8.13
2019-01-03T14:30:20.250Z,8.45
2019-01-03T14:32:47.603Z,12.85
2019-01-03T14:35:14.789Z,10.88
2019-01-03T14:37:42.137Z,8.33
2019-01-03T14:40:09.353Z,14.68
2019-01-03T14:42:36.767Z,8.35
2019-01-03T14:45:04.393Z,10.43
2019-01-03T14:47:31.651Z,8.10
2019-01-03T14:49:58.959Z,8.20
2019-01-03T14:52:26.300Z,8.93
2019-01-03T14:54:53.538Z,8.00
2019-01-03T14:57:20.863Z,8.15
2019-01-03T14:59:48.173Z,6.78
2019-01-03T15:02:15.384Z,13.72
2019-01-03T15:04:42.688Z,13.70
2019-01-03T15:07:10.021Z,6.95
2019-01-03T15:09:37.237Z,7.85
2019-01-03T15:12:04.549Z,9.23
2019-01-03T15:14:31.877Z,13.90
2019-01-03T15:16:59.199Z,10.48
2019-01-03T15:19:27.532Z,9.00
2019-01-03T15:21:54.933Z,6.28
2019-01-03T15:24:22.264Z,8.68
2019-01-03T15:26:49.599Z,6.20
2019-01-03T15:29:16.812Z,9.98
2019-01-03T15:31:44.085Z,12.00
2019-01-03T15:34:11.389Z,7.05
2019-01-03T15:36:38.718Z,12.37
2019-01-03T15:39:06.051Z,8.10
2019-01-03T15:41:33.490Z,10.38
2019-01-03T15:44:00.717Z,5.97
2019-01-03T15:46:27.929Z,7.17
2019-01-03T15:48:56.580Z,7.50
2019-01-03T15:51:23.907Z,7.60
2019-01-03T15:53:51.239Z,8.08
2019-01-03T15:56:18.486Z,11.10
2019-01-03T15:58:45.715Z,11.15
2019-01-03T16:01:13.055Z,9.70
2019-01-03T16:03:40.282Z,12.10
2019-01-03T16:06:07.636Z,7.25
2019-01-03T16:08:34.844Z,9.38
2019-01-03T16:11:02.203Z,14.20
2019-01-03T16:13:29.604Z,6.80
2019-01-03T16:15:56.945Z,10.15
2019-01-03T16:18:24.361Z,6.55
2019-01-03T16:20:51.693Z,11.05
2019-01-03T16:23:19.030Z,8.23
2019-01-03T16:25:46.383Z,9.60
2019-01-03T16:28:13.716Z,8.05
2019-01-03T16:30:41.037Z,5.72
2019-01-03T16:33:08.414Z,8.20
2019-01-03T16:35:35.772Z,10.55
2019-01-03T16:38:03.008Z,6.65
2019-01-03T16:40:30.360Z,7.05
2019-01-03T16:42:57.712Z,7.40
2019-01-03T16:45:25.732Z,7.30
2019-01-03T16:47:52.984Z,9.38
2019-01-03T16:50:20.319Z,7.80
2019-01-03T16:52:47.659Z,7.15
2019-01-03T16:55:15.030Z,10.58
2019-01-03T16:57:42.372Z,7.97
2019-01-03T17:00:12.178Z,11.18
2019-01-03T17:02:41.621Z,10.43
2019-01-03T17:05:08.993Z,9.00
2019-01-03T17:07:36.443Z,8.88
2019-01-03T17:10:05.697Z,4.87
2019-01-03T17:12:33.055Z,9.25
2019-01-03T17:15:00.536Z,7.72
2019-01-03T17:17:27.980Z,9.50
2019-01-03T17:19:55.297Z,8.43
2019-01-03T17:22:22.660Z,9.08
2019-01-03T17:24:50.013Z,9.78
2019-01-03T17:27:17.473Z,11.73
2019-01-03T17:29:44.846Z,12.78
2019-01-03T17:32:12.194Z,8.13
2019-01-03T17:34:39.509Z,8.08
2019-01-03T17:37:06.898Z,9.33
2019-01-03T17:39:34.258Z,7.95
2019-01-03T17:42:01.623Z,9.03
2019-01-03T17:44:28.988Z,10.72
2019-01-03T17:46:56.416Z,8.95
2019-01-03T17:49:23.758Z,14.18
2019-01-03T17:51:51.091Z,10.53
2019-01-03T17:54:18.307Z,8.55
2019-01-03T17:56:45.616Z,11.12
2019-01-03T17:59:12.953Z,9.48
2019-01-03T18:01:40.277Z,8.65
2019-01-03T18:04:07.731Z,7.87
2019-01-03T18:06:35.037Z,7.85
2019-01-03T18:09:02.896Z,10.32
2019-01-03T18:11:30.106Z,10.95
2019-01-03T18:13:57.444Z,6.85
2019-01-03T18:16:24.787Z,6.72
2019-01-03T18:18:52.129Z,7.90
2019-01-03T18:21:19.495Z,11.90
2019-01-03T18:23:46.735Z,11.00
2019-01-03T18:26:14.057Z,13.48
2019-01-03T18:28:41.412Z,8.73
2019-01-03T18:31:08.612Z,9.85
2019-01-03T18:33:35.912Z,13.20
2019-01-03T18:36:03.125Z,10.93
2019-01-03T18:38:30.342Z,8.08
2019-01-03T18:40:57.735Z,10.15
2019-01-03T18:43:25.192Z,9.85
2019-01-03T18:45:52.527Z,7.22
2019-01-03T18:48:19.876Z,12.53
2019-01-03T18:50:47.348Z,11.33
2019-01-03T18:53:14.657Z,7.00
2019-01-03T18:55:41.905Z,9.85
2019-01-03T18:58:09.287Z,11.05
2019-01-03T19:00:36.657Z,9.60
2019-01-03T19:03:03.995Z,9.58
2019-01-03T19:05:31.197Z,7.83
2019-01-03T19:07:58.516Z,10.25
2019-01-03T19:10:28.368Z,9.30
2019-01-03T19:12:55.110Z,12.30
2019-01-03T19:15:22.424Z,6.33
2019-01-03T19:17:49.670Z,7.10
2019-01-03T19:20:17.098Z,8.90
2019-01-03T19:22:44.521Z,11.28
2019-01-03T19:25:14.339Z,9.08
2019-01-03T19:27:41.723Z,6.42
2019-01-03T19:30:09.758Z,8.58
2019-01-03T19:32:37.125Z,9.30
2019-01-03T19:35:05.733Z,8.83
2019-01-03T19:37:33.147Z,8.78
2019-01-03T19:40:00.509Z,6.08
2019-01-03T19:42:27.838Z,9.70
2019-01-03T19:44:55.182Z,7.80
2019-01-03T19:47:22.567Z,8.85
2019-01-03T19:49:49.808Z,7.42
2019-01-03T19:52:17.237Z,6.80
2019-01-03T19:54:44.714Z,9.35
2019-01-03T19:57:12.083Z,9.85
2019-01-03T19:59:39.446Z,7.20
2019-01-03T20:02:06.782Z,12.35
2019-01-03T20:04:34.191Z,9.40
2019-01-03T20:07:01.741Z,7.22
2019-01-03T20:09:29.134Z,8.60
2019-01-03T20:11:56.603Z,9.68
2019-01-03T20:14:23.990Z,10.75
2019-01-03T20:16:51.454Z,7.70
2019-01-03T20:19:18.849Z,12.40
2019-01-03T20:21:46.245Z,13.75
2019-01-03T20:24:13.653Z,11.68
2019-01-03T20:26:41.042Z,7.62
2019-01-03T20:29:08.590Z,11.00
2019-01-03T20:31:36.816Z,9.83
2019-01-03T20:34:04.185Z,10.98
2019-01-03T20:36:31.558Z,10.93
2019-01-03T20:38:59.254Z,10.38
2019-01-03T20:41:26.657Z,9.60
2019-01-03T20:43:54.109Z,11.30
2019-01-03T20:46:21.504Z,11.53
2019-01-03T20:48:48.894Z,10.38
2019-01-03T20:51:16.254Z,19.00
2019-01-03T20:53:43.667Z,12.63
2019-01-03T20:56:11.389Z,12.15
2019-01-03T20:58:38.741Z,12.05
2019-01-03T21:01:06.180Z,10.10
2019-01-03T21:03:33.549Z,12.50
2019-01-03T21:06:00.936Z,14.15
2019-01-03T21:08:28.310Z,14.38
2019-01-03T21:10:55.605Z,13.68
2019-01-03T21:13:23.031Z,13.28
2019-01-03T21:15:50.401Z,12.18
2019-01-03T21:18:17.809Z,17.50
2019-01-03T21:20:45.182Z,13.90
2019-01-03T21:23:12.531Z,17.82
2019-01-03T21:25:39.869Z,14.07
2019-01-03T21:28:07.311Z,18.87
2019-01-03T21:30:34.544Z,15.23
2019-01-03T21:33:01.923Z,12.15
2019-01-03T21:35:29.267Z,15.75
2019-01-03T21:37:56.595Z,16.55
2019-01-03T21:40:23.935Z,15.63
2019-01-03T21:42:51.267Z,13.43
2019-01-03T21:45:18.603Z,18.42
2019-01-03T21:47:45.899Z,15.08
2019-01-03T21:50:13.221Z,17.32
2019-01-03T21:52:40.507Z,14.28
2019-01-03T21:55:07.835Z,17.98
2019-01-03T21:57:35.193Z,14.00
2019-01-03T22:00:02.573Z,15.63
2019-01-03T22:02:29.900Z,16.02
2019-01-03T22:04:57.138Z,14.07
2019-01-03T22:07:24.561Z,17.10
2019-01-03T22:09:51.936Z,14.68
2019-01-03T22:12:19.255Z,16.37
2019-01-03T22:14:46.491Z,18.85
2019-01-03T22:17:13.842Z,14.90
2019-01-03T22:19:41.293Z,15.75
2019-01-03T22:22:08.516Z,14.35
2019-01-03T22:24:35.914Z,17.48
2019-01-03T22:27:03.245Z,16.90
2019-01-03T22:29:30.609Z,13.83
2019-01-03T22:31:57.838Z,17.60
2019-01-03T22:34:25.231Z,18.55
2019-01-03T22:36:52.555Z,15.65
2019-01-03T22:39:19.877Z,19.73
2019-01-03T22:41:47.211Z,19.60
2019-01-03T22:44:14.525Z,17.37
2019-01-03T22:46:41.885Z,22.22
2019-01-03T22:49:09.247Z,17.42
2019-01-03T22:51:36.575Z,21.73
2019-01-03T22:54:03.915Z,15.72
2019-01-03T22:56:31.248Z,18.30
2019-01-03T22:58:58.552Z,24.12
2019-01-03T23:01:26.023Z,18.77
2019-01-03T23:03:53.487Z,23.42
2019-01-03T23:06:20.841Z,20.45
2019-01-03T23:08:48.173Z,19.25
2019-01-03T23:11:15.395Z,21.85
2019-01-03T23:13:42.667Z,19.92
2019-01-03T23:16:10.067Z,21.48
2019-01-03T23:18:37.307Z,20.17
2019-01-03T23:21:04.649Z,20.37
2019-01-03T23:23:31.993Z,23.92
2019-01-03T23:26:01.207Z,19.40
2019-01-03T23:28:28.446Z,23.70
2019-01-03T23:30:55.777Z,21.10
2019-01-03T23:33:23.091Z,21.20
2019-01-03T23:35:50.401Z,21.37
2019-01-03T23:38:17.625Z,23.65
2019-01-03T23:40:44.834Z,22.45
2019-01-03T23:43:12.233Z,22.50
2019-01-03T23:45:39.892Z,21.07
2019-01-03T23:48:07.261Z,23.75
2019-01-03T23:50:35.549Z,20.48
2019-01-03T23:53:05.762Z,23.42
2019-01-03T23:55:59.411Z,22.45
2019-01-03T23:58:26.756Z,15.58
